Accueil
METAR-TAF:

METAR-TAF

Aéroports :

Pilot Point, Alaska, États-Unis

latitude: 57-34-49N, longitude: 157-34-19W, altitude: 17 m

Observation

Le bulletin a été fait il y a 6 minutes, à 13:56 UTC
Vent 14 kt de est
Température -3°C
Humidité 74%
Pression 1007 hPa
Visibilité: 16.1 km
Quelques nuages à une hauteur de 7000 ft
Ciel couvert à une hauteur de 10000 ft

METAR: PAPN 291356Z AUTO 10014KT 10SM FEW070 OVC100 M03/M07 A2975 RMK AO2 SLP089 T10331067 PWINO FZRANO $

Heure: 05:02 (14:02 UTC)


TAF: absent

Observations et prévisions météorologiques de plus de 4000 aéroports (messages METAR et TAF).

Les stations disponibles sont représentées par des disques jaunes et rouges sur la carte.

Passer la souris dessus pour voir le nom de la station.

Cliquer dessus pour voir les observations et prévisions météorologiques.

Pour changer de carte: cliquez sur les boutons verts avec une croix noire pour zoomer, sur le bouton vert avec un tiret pour effectuer un zoom arrière, ou sur les flèches vertes pour les cartes adjacentes.


METAR-TAF: